Owenton, Kentucky
Current Conditions -  °F | °C
As of 1:53 PM on Sunday 21 Dec 2014 (Local Time) from KFFT Reporting Station
Clear Clear  
Wind Chill: 34°   Ceiling: Unl
Heat Index: 39°   Visibility: 9mi
Dew Point: 28°   Wind: 7mph
Humidity: 65%   Direction: 100°E
Pressure: 30.19"   Gusts: NA
Location:  38.54°N, 84.84°W
Report Text: KFFT 211853Z AUTO 10006KT 9SM CLR 04/M02 A3019 RMK AO2 SLP231 T00391022
Loading
Personal Weather Stations






























Interactive Weather Map New forecast layout! Learn more

10-Day Weather Forecast

Advertisements
Track Severe Weather on mobile